sensor_id;sensor_type;location;lat;lon;timestamp;temperature;humidity
1391;DHT22;690;51.454;7.194;2023-06-22T00:01:17;19.70;99.90
1391;DHT22;690;51.454;7.194;2023-06-22T00:03:44;19.70;99.90
1391;DHT22;690;51.454;7.194;2023-06-22T00:06:12;19.70;99.90
1391;DHT22;690;51.454;7.194;2023-06-22T00:08:39;19.60;99.90
1391;DHT22;690;51.454;7.194;2023-06-22T00:11:06;19.60;99.90
1391;DHT22;690;51.454;7.194;2023-06-22T00:13:33;19.60;99.90
1391;DHT22;690;51.454;7.194;2023-06-22T00:16:00;19.60;99.90
1391;DHT22;690;51.454;7.194;2023-06-22T00:18:27;19.50;99.90
1391;DHT22;690;51.454;7.194;2023-06-22T00:20:56;19.50;99.90
1391;DHT22;690;51.454;7.194;2023-06-22T00:23:27;19.50;99.90
1391;DHT22;690;51.454;7.194;2023-06-22T00:25:54;19.50;99.90
1391;DHT22;690;51.454;7.194;2023-06-22T00:28:21;19.50;99.90
1391;DHT22;690;51.454;7.194;2023-06-22T00:30:48;19.50;99.90
1391;DHT22;690;51.454;7.194;2023-06-22T00:33:15;19.50;99.90
1391;DHT22;690;51.454;7.194;2023-06-22T00:35:42;19.50;99.90
1391;DHT22;690;51.454;7.194;2023-06-22T00:38:09;19.50;99.90
1391;DHT22;690;51.454;7.194;2023-06-22T00:40:38;19.40;99.90
1391;DHT22;690;51.454;7.194;2023-06-22T00:43:05;19.40;99.90
1391;DHT22;690;51.454;7.194;2023-06-22T00:45:32;19.40;99.90
1391;DHT22;690;51.454;7.194;2023-06-22T00:48:00;19.30;99.90
1391;DHT22;690;51.454;7.194;2023-06-22T00:50:28;19.30;99.90
1391;DHT22;690;51.454;7.194;2023-06-22T00:53:00;19.30;99.90
1391;DHT22;690;51.454;7.194;2023-06-22T00:55:29;19.30;99.90
1391;DHT22;690;51.454;7.194;2023-06-22T00:57:57;19.30;99.90
1391;DHT22;690;51.454;7.194;2023-06-22T01:00:24;19.20;99.90
1391;DHT22;690;51.454;7.194;2023-06-22T01:02:52;19.20;99.90
1391;DHT22;690;51.454;7.194;2023-06-22T01:05:20;19.20;99.90
1391;DHT22;690;51.454;7.194;2023-06-22T01:07:59;19.20;99.90
1391;DHT22;690;51.454;7.194;2023-06-22T01:10:35;19.10;99.90
1391;DHT22;690;51.454;7.194;2023-06-22T01:13:10;19.20;99.90
1391;DHT22;690;51.454;7.194;2023-06-22T01:15:44;19.10;99.90
1391;DHT22;690;51.454;7.194;2023-06-22T01:18:16;19.10;99.90
1391;DHT22;690;51.454;7.194;2023-06-22T01:20:44;19.10;99.90
1391;DHT22;690;51.454;7.194;2023-06-22T01:23:20;19.00;99.90
1391;DHT22;690;51.454;7.194;2023-06-22T01:26:08;19.00;99.90
1391;DHT22;690;51.454;7.194;2023-06-22T01:28:45;19.00;99.90
1391;DHT22;690;51.454;7.194;2023-06-22T01:31:14;19.00;99.90
1391;DHT22;690;51.454;7.194;2023-06-22T01:33:45;19.00;99.90
1391;DHT22;690;51.454;7.194;2023-06-22T01:36:13;18.90;99.90
1391;DHT22;690;51.454;7.194;2023-06-22T01:38:42;18.90;99.90
1391;DHT22;690;51.454;7.194;2023-06-22T01:41:10;18.80;99.90
1391;DHT22;690;51.454;7.194;2023-06-22T01:43:38;18.80;99.90
1391;DHT22;690;51.454;7.194;2023-06-22T01:46:07;18.70;99.90
1391;DHT22;690;51.454;7.194;2023-06-22T01:48:34;18.70;99.90
1391;DHT22;690;51.454;7.194;2023-06-22T01:51:02;18.70;99.90
1391;DHT22;690;51.454;7.194;2023-06-22T01:53:29;18.70;99.90
1391;DHT22;690;51.454;7.194;2023-06-22T01:55:56;18.60;99.90
1391;DHT22;690;51.454;7.194;2023-06-22T01:58:26;18.60;99.90
1391;DHT22;690;51.454;7.194;2023-06-22T02:00:58;18.50;99.90
1391;DHT22;690;51.454;7.194;2023-06-22T02:03:32;18.50;99.90
1391;DHT22;690;51.454;7.194;2023-06-22T02:06:05;18.40;99.90
1391;DHT22;690;51.454;7.194;2023-06-22T02:08:38;18.40;99.90
1391;DHT22;690;51.454;7.194;2023-06-22T02:11:06;18.40;99.90
1391;DHT22;690;51.454;7.194;2023-06-22T02:13:35;18.40;99.90
1391;DHT22;690;51.454;7.194;2023-06-22T02:16:03;18.40;99.90
1391;DHT22;690;51.454;7.194;2023-06-22T02:18:47;18.40;99.90
1391;DHT22;690;51.454;7.194;2023-06-22T02:21:16;18.40;99.90
1391;DHT22;690;51.454;7.194;2023-06-22T02:23:43;18.40;99.90
1391;DHT22;690;51.454;7.194;2023-06-22T02:26:10;18.40;99.90
1391;DHT22;690;51.454;7.194;2023-06-22T02:28:37;18.40;99.90
1391;DHT22;690;51.454;7.194;2023-06-22T02:31:04;18.40;99.90
1391;DHT22;690;51.454;7.194;2023-06-22T02:33:31;18.40;99.90
1391;DHT22;690;51.454;7.194;2023-06-22T02:35:59;18.40;99.90
1391;DHT22;690;51.454;7.194;2023-06-22T02:38:30;18.40;99.90
1391;DHT22;690;51.454;7.194;2023-06-22T02:41:00;18.40;99.90
1391;DHT22;690;51.454;7.194;2023-06-22T02:43:26;18.40;99.90
1391;DHT22;690;51.454;7.194;2023-06-22T02:45:53;18.40;99.90
1391;DHT22;690;51.454;7.194;2023-06-22T02:48:20;18.50;99.90
1391;DHT22;690;51.454;7.194;2023-06-22T02:50:47;18.40;99.90
1391;DHT22;690;51.454;7.194;2023-06-22T02:53:15;18.40;99.90
1391;DHT22;690;51.454;7.194;2023-06-22T02:55:42;18.40;99.90
1391;DHT22;690;51.454;7.194;2023-06-22T02:58:09;18.40;99.90
1391;DHT22;690;51.454;7.194;2023-06-22T03:00:36;18.30;99.90
1391;DHT22;690;51.454;7.194;2023-06-22T03:03:05;18.30;99.90
1391;DHT22;690;51.454;7.194;2023-06-22T03:05:32;18.30;99.90
1391;DHT22;690;51.454;7.194;2023-06-22T03:08:00;18.30;99.90
1391;DHT22;690;51.454;7.194;2023-06-22T03:10:29;18.20;99.90
1391;DHT22;690;51.454;7.194;2023-06-22T03:12:55;18.20;99.90
1391;DHT22;690;51.454;7.194;2023-06-22T03:15:23;18.20;99.90
1391;DHT22;690;51.454;7.194;2023-06-22T03:17:50;18.20;99.90
1391;DHT22;690;51.454;7.194;2023-06-22T03:20:17;18.20;99.90
1391;DHT22;690;51.454;7.194;2023-06-22T03:22:44;18.10;99.90
1391;DHT22;690;51.454;7.194;2023-06-22T03:25:11;18.10;99.90
1391;DHT22;690;51.454;7.194;2023-06-22T03:27:40;18.10;99.90
1391;DHT22;690;51.454;7.194;2023-06-22T03:30:10;18.10;99.90
1391;DHT22;690;51.454;7.194;2023-06-22T03:32:37;18.10;99.90
1391;DHT22;690;51.454;7.194;2023-06-22T03:35:05;18.00;99.90
1391;DHT22;690;51.454;7.194;2023-06-22T03:37:32;17.90;1.00
1391;DHT22;690;51.454;7.194;2023-06-22T03:39:59;17.90;1.00
1391;DHT22;690;51.454;7.194;2023-06-22T03:42:26;17.80;1.00
1391;DHT22;690;51.454;7.194;2023-06-22T03:44:55;17.80;1.00
1391;DHT22;690;51.454;7.194;2023-06-22T03:47:22;17.80;1.00
1391;DHT22;690;51.454;7.194;2023-06-22T03:49:49;17.80;1.00
1391;DHT22;690;51.454;7.194;2023-06-22T03:52:20;17.80;1.00
1391;DHT22;690;51.454;7.194;2023-06-22T03:54:48;17.80;1.00
1391;DHT22;690;51.454;7.194;2023-06-22T03:57:15;17.80;1.00
1391;DHT22;690;51.454;7.194;2023-06-22T03:59:42;17.70;1.00
1391;DHT22;690;51.454;7.194;2023-06-22T04:02:10;17.60;1.00
1391;DHT22;690;51.454;7.194;2023-06-22T04:04:38;17.70;1.00
1391;DHT22;690;51.454;7.194;2023-06-22T04:07:06;17.60;1.00
1391;DHT22;690;51.454;7.194;2023-06-22T04:09:33;17.70;1.00
1391;DHT22;690;51.454;7.194;2023-06-22T04:12:01;17.70;1.00
1391;DHT22;690;51.454;7.194;2023-06-22T04:14:34;17.70;1.00
1391;DHT22;690;51.454;7.194;2023-06-22T04:17:01;17.70;1.00
1391;DHT22;690;51.454;7.194;2023-06-22T04:19:30;17.80;1.00
1391;DHT22;690;51.454;7.194;2023-06-22T04:21:57;17.70;1.00
1391;DHT22;690;51.454;7.194;2023-06-22T04:24:23;17.80;1.00
1391;DHT22;690;51.454;7.194;2023-06-22T04:26:50;17.80;1.00
1391;DHT22;690;51.454;7.194;2023-06-22T04:29:22;17.80;1.00
1391;DHT22;690;51.454;7.194;2023-06-22T04:31:55;17.90;1.00
1391;DHT22;690;51.454;7.194;2023-06-22T04:34:24;17.90;1.00
1391;DHT22;690;51.454;7.194;2023-06-22T04:36:54;18.00;1.00
1391;DHT22;690;51.454;7.194;2023-06-22T04:39:21;18.00;1.00
1391;DHT22;690;51.454;7.194;2023-06-22T04:41:49;18.10;1.00
1391;DHT22;690;51.454;7.194;2023-06-22T04:44:17;18.20;1.00
1391;DHT22;690;51.454;7.194;2023-06-22T04:46:49;18.20;1.00
1391;DHT22;690;51.454;7.194;2023-06-22T04:49:20;18.20;1.00
1391;DHT22;690;51.454;7.194;2023-06-22T04:51:48;18.30;1.00
1391;DHT22;690;51.454;7.194;2023-06-22T04:54:18;18.30;1.00
1391;DHT22;690;51.454;7.194;2023-06-22T04:56:45;18.30;1.00
1391;DHT22;690;51.454;7.194;2023-06-22T04:59:12;18.40;1.00
1391;DHT22;690;51.454;7.194;2023-06-22T05:01:39;18.40;99.90
1391;DHT22;690;51.454;7.194;2023-06-22T05:04:06;18.40;99.90
1391;DHT22;690;51.454;7.194;2023-06-22T05:06:33;18.40;99.90
1391;DHT22;690;51.454;7.194;2023-06-22T05:09:00;18.40;99.90
1391;DHT22;690;51.454;7.194;2023-06-22T05:11:30;18.50;99.90
1391;DHT22;690;51.454;7.194;2023-06-22T05:13:57;18.50;99.90
1391;DHT22;690;51.454;7.194;2023-06-22T05:16:24;18.60;99.90
1391;DHT22;690;51.454;7.194;2023-06-22T05:18:52;18.50;99.90
1391;DHT22;690;51.454;7.194;2023-06-22T05:21:22;18.50;99.90
1391;DHT22;690;51.454;7.194;2023-06-22T05:23:49;18.60;99.90
1391;DHT22;690;51.454;7.194;2023-06-22T05:26:17;18.60;99.90
1391;DHT22;690;51.454;7.194;2023-06-22T05:28:45;18.60;99.90
1391;DHT22;690;51.454;7.194;2023-06-22T05:31:13;18.60;99.90
1391;DHT22;690;51.454;7.194;2023-06-22T05:33:40;18.70;99.90
1391;DHT22;690;51.454;7.194;2023-06-22T05:36:08;18.70;99.90
1391;DHT22;690;51.454;7.194;2023-06-22T05:38:36;18.70;99.90
1391;DHT22;690;51.454;7.194;2023-06-22T05:41:03;18.70;99.90
1391;DHT22;690;51.454;7.194;2023-06-22T05:43:30;18.80;99.90
1391;DHT22;690;51.454;7.194;2023-06-22T05:45:59;18.80;99.90
1391;DHT22;690;51.454;7.194;2023-06-22T05:48:26;18.80;99.90
1391;DHT22;690;51.454;7.194;2023-06-22T05:50:53;18.80;99.90
1391;DHT22;690;51.454;7.194;2023-06-22T05:53:20;18.80;99.90
1391;DHT22;690;51.454;7.194;2023-06-22T05:55:47;18.80;99.90
1391;DHT22;690;51.454;7.194;2023-06-22T05:58:14;18.80;99.90
1391;DHT22;690;51.454;7.194;2023-06-22T06:00:42;18.80;99.90
1391;DHT22;690;51.454;7.194;2023-06-22T06:03:10;18.90;99.90
1391;DHT22;690;51.454;7.194;2023-06-22T06:05:40;18.90;99.90
1391;DHT22;690;51.454;7.194;2023-06-22T06:08:07;19.00;99.90
1391;DHT22;690;51.454;7.194;2023-06-22T06:10:36;19.20;99.90
1391;DHT22;690;51.454;7.194;2023-06-22T06:13:03;19.30;99.90
1391;DHT22;690;51.454;7.194;2023-06-22T06:15:30;19.40;99.90
1391;DHT22;690;51.454;7.194;2023-06-22T06:17:57;19.40;99.90
1391;DHT22;690;51.454;7.194;2023-06-22T06:20:26;19.50;99.90
1391;DHT22;690;51.454;7.194;2023-06-22T06:22:54;19.60;99.90
1391;DHT22;690;51.454;7.194;2023-06-22T06:25:21;19.60;99.90
1391;DHT22;690;51.454;7.194;2023-06-22T06:27:50;19.60;99.90
1391;DHT22;690;51.454;7.194;2023-06-22T06:30:18;19.60;99.90
1391;DHT22;690;51.454;7.194;2023-06-22T06:32:46;19.60;99.90
1391;DHT22;690;51.454;7.194;2023-06-22T06:35:14;19.60;99.90
1391;DHT22;690;51.454;7.194;2023-06-22T06:37:49;19.70;99.90
1391;DHT22;690;51.454;7.194;2023-06-22T06:40:17;19.70;99.90
1391;DHT22;690;51.454;7.194;2023-06-22T06:42:46;19.70;99.90
1391;DHT22;690;51.454;7.194;2023-06-22T06:45:16;19.90;99.90
1391;DHT22;690;51.454;7.194;2023-06-22T06:47:43;19.90;99.90
1391;DHT22;690;51.454;7.194;2023-06-22T06:50:10;19.80;99.90
1391;DHT22;690;51.454;7.194;2023-06-22T06:52:38;19.90;99.90
1391;DHT22;690;51.454;7.194;2023-06-22T06:55:07;19.90;99.90
1391;DHT22;690;51.454;7.194;2023-06-22T06:57:35;19.90;99.90
1391;DHT22;690;51.454;7.194;2023-06-22T07:00:03;19.90;99.90
1391;DHT22;690;51.454;7.194;2023-06-22T07:02:34;20.00;99.90
1391;DHT22;690;51.454;7.194;2023-06-22T07:05:01;20.00;99.90
1391;DHT22;690;51.454;7.194;2023-06-22T07:07:31;20.10;99.90
1391;DHT22;690;51.454;7.194;2023-06-22T07:09:58;20.20;99.90
1391;DHT22;690;51.454;7.194;2023-06-22T07:12:26;20.20;99.90
1391;DHT22;690;51.454;7.194;2023-06-22T07:14:53;20.30;99.90
1391;DHT22;690;51.454;7.194;2023-06-22T07:17:20;20.40;99.90
1391;DHT22;690;51.454;7.194;2023-06-22T07:19:47;20.40;99.90
1391;DHT22;690;51.454;7.194;2023-06-22T07:22:14;20.50;99.90
1391;DHT22;690;51.454;7.194;2023-06-22T07:24:41;20.50;99.90
1391;DHT22;690;51.454;7.194;2023-06-22T07:27:08;20.50;99.90
1391;DHT22;690;51.454;7.194;2023-06-22T07:29:38;20.60;99.90
1391;DHT22;690;51.454;7.194;2023-06-22T07:32:08;20.70;99.90
1391;DHT22;690;51.454;7.194;2023-06-22T07:34:35;20.80;99.90
1391;DHT22;690;51.454;7.194;2023-06-22T07:37:01;20.80;99.90
1391;DHT22;690;51.454;7.194;2023-06-22T07:39:30;20.80;99.90
1391;DHT22;690;51.454;7.194;2023-06-22T07:41:57;20.90;99.90
1391;DHT22;690;51.454;7.194;2023-06-22T07:44:24;21.00;99.90
1391;DHT22;690;51.454;7.194;2023-06-22T07:46:52;21.00;99.90
1391;DHT22;690;51.454;7.194;2023-06-22T07:49:20;21.00;99.90
1391;DHT22;690;51.454;7.194;2023-06-22T07:51:47;21.00;99.90
1391;DHT22;690;51.454;7.194;2023-06-22T07:54:13;21.10;99.90
1391;DHT22;690;51.454;7.194;2023-06-22T07:56:41;21.20;99.90
1391;DHT22;690;51.454;7.194;2023-06-22T07:59:08;21.50;99.90
1391;DHT22;690;51.454;7.194;2023-06-22T08:01:35;21.80;99.90
1391;DHT22;690;51.454;7.194;2023-06-22T08:04:03;22.10;99.90
1391;DHT22;690;51.454;7.194;2023-06-22T08:06:31;22.30;99.90
1391;DHT22;690;51.454;7.194;2023-06-22T08:08:58;22.50;99.90
1391;DHT22;690;51.454;7.194;2023-06-22T08:11:25;22.60;99.90
1391;DHT22;690;51.454;7.194;2023-06-22T08:13:56;22.80;99.90
1391;DHT22;690;51.454;7.194;2023-06-22T08:16:24;22.90;99.90
1391;DHT22;690;51.454;7.194;2023-06-22T08:18:51;22.90;99.90
1391;DHT22;690;51.454;7.194;2023-06-22T08:21:19;22.90;99.90
1391;DHT22;690;51.454;7.194;2023-06-22T08:23:47;23.00;99.90
1391;DHT22;690;51.454;7.194;2023-06-22T08:26:14;22.90;99.90
1391;DHT22;690;51.454;7.194;2023-06-22T08:28:41;22.80;99.90
1391;DHT22;690;51.454;7.194;2023-06-22T08:31:08;22.80;99.90
1391;DHT22;690;51.454;7.194;2023-06-22T08:33:39;22.70;99.90
1391;DHT22;690;51.454;7.194;2023-06-22T08:36:06;22.70;99.90
1391;DHT22;690;51.454;7.194;2023-06-22T08:38:35;22.70;99.90
1391;DHT22;690;51.454;7.194;2023-06-22T08:41:02;22.70;99.90
1391;DHT22;690;51.454;7.194;2023-06-22T08:43:29;22.90;99.90
1391;DHT22;690;51.454;7.194;2023-06-22T08:45:56;22.90;99.90
1391;DHT22;690;51.454;7.194;2023-06-22T08:48:23;23.00;99.90
1391;DHT22;690;51.454;7.194;2023-06-22T08:50:50;23.10;99.90
1391;DHT22;690;51.454;7.194;2023-06-22T08:53:16;23.20;99.90
1391;DHT22;690;51.454;7.194;2023-06-22T08:55:45;23.40;99.90
1391;DHT22;690;51.454;7.194;2023-06-22T08:58:12;23.50;99.90
1391;DHT22;690;51.454;7.194;2023-06-22T09:00:40;23.70;99.90
1391;DHT22;690;51.454;7.194;2023-06-22T09:03:07;23.80;99.90
1391;DHT22;690;51.454;7.194;2023-06-22T09:05:34;23.80;99.90
1391;DHT22;690;51.454;7.194;2023-06-22T09:08:01;23.70;99.90
1391;DHT22;690;51.454;7.194;2023-06-22T09:10:28;23.60;99.90
1391;DHT22;690;51.454;7.194;2023-06-22T09:12:57;23.60;99.90
1391;DHT22;690;51.454;7.194;2023-06-22T09:15:24;23.70;99.90
1391;DHT22;690;51.454;7.194;2023-06-22T09:17:51;23.70;99.90
1391;DHT22;690;51.454;7.194;2023-06-22T09:20:19;23.80;99.90
1391;DHT22;690;51.454;7.194;2023-06-22T09:22:46;23.90;99.90
1391;DHT22;690;51.454;7.194;2023-06-22T09:25:14;24.10;99.90
1391;DHT22;690;51.454;7.194;2023-06-22T09:27:40;24.20;99.90
1391;DHT22;690;51.454;7.194;2023-06-22T09:30:09;24.20;99.90
1391;DHT22;690;51.454;7.194;2023-06-22T09:32:36;24.30;99.90
1391;DHT22;690;51.454;7.194;2023-06-22T09:35:05;24.50;99.90
1391;DHT22;690;51.454;7.194;2023-06-22T09:37:32;24.60;99.90
1391;DHT22;690;51.454;7.194;2023-06-22T09:39:59;24.70;99.90
1391;DHT22;690;51.454;7.194;2023-06-22T09:42:26;24.80;99.90
1391;DHT22;690;51.454;7.194;2023-06-22T09:44:53;24.70;99.90
1391;DHT22;690;51.454;7.194;2023-06-22T09:47:21;24.80;99.90
1391;DHT22;690;51.454;7.194;2023-06-22T09:49:48;24.90;99.90
1391;DHT22;690;51.454;7.194;2023-06-22T09:52:15;25.00;99.90
1391;DHT22;690;51.454;7.194;2023-06-22T09:54:42;25.10;99.90
1391;DHT22;690;51.454;7.194;2023-06-22T09:57:09;25.30;99.90
1391;DHT22;690;51.454;7.194;2023-06-22T09:59:36;25.50;99.90
1391;DHT22;690;51.454;7.194;2023-06-22T10:02:03;25.70;99.90
1391;DHT22;690;51.454;7.194;2023-06-22T10:04:32;25.80;99.90
1391;DHT22;690;51.454;7.194;2023-06-22T10:06:59;25.90;99.90
1391;DHT22;690;51.454;7.194;2023-06-22T10:09:25;25.90;99.90
1391;DHT22;690;51.454;7.194;2023-06-22T10:11:52;25.80;99.90
1391;DHT22;690;51.454;7.194;2023-06-22T10:14:19;25.70;99.90
1391;DHT22;690;51.454;7.194;2023-06-22T10:16:48;25.90;99.90
1391;DHT22;690;51.454;7.194;2023-06-22T10:19:15;26.00;99.90
1391;DHT22;690;51.454;7.194;2023-06-22T10:21:43;26.10;99.90
1391;DHT22;690;51.454;7.194;2023-06-22T10:24:10;26.10;99.90
1391;DHT22;690;51.454;7.194;2023-06-22T10:26:37;26.20;99.90
1391;DHT22;690;51.454;7.194;2023-06-22T10:29:04;26.30;99.90
1391;DHT22;690;51.454;7.194;2023-06-22T10:31:32;26.40;99.90
1391;DHT22;690;51.454;7.194;2023-06-22T10:33:58;26.40;99.90
1391;DHT22;690;51.454;7.194;2023-06-22T10:36:25;26.40;99.90
1391;DHT22;690;51.454;7.194;2023-06-22T10:38:54;26.50;99.90
1391;DHT22;690;51.454;7.194;2023-06-22T10:41:21;26.60;99.90
1391;DHT22;690;51.454;7.194;2023-06-22T10:43:49;26.70;99.90
1391;DHT22;690;51.454;7.194;2023-06-22T10:46:16;26.80;99.90
1391;DHT22;690;51.454;7.194;2023-06-22T10:48:43;27.00;99.90
1391;DHT22;690;51.454;7.194;2023-06-22T10:51:10;27.10;99.90
1391;DHT22;690;51.454;7.194;2023-06-22T10:53:37;27.20;99.90
1391;DHT22;690;51.454;7.194;2023-06-22T10:56:05;27.30;99.90
1391;DHT22;690;51.454;7.194;2023-06-22T10:58:32;27.30;99.90
1391;DHT22;690;51.454;7.194;2023-06-22T11:00:59;27.10;99.90
1391;DHT22;690;51.454;7.194;2023-06-22T11:03:26;26.90;99.90
1391;DHT22;690;51.454;7.194;2023-06-22T11:05:53;26.80;99.90
1391;DHT22;690;51.454;7.194;2023-06-22T11:08:19;26.70;99.90
1391;DHT22;690;51.454;7.194;2023-06-22T11:10:46;26.40;99.90
1391;DHT22;690;51.454;7.194;2023-06-22T11:13:14;26.20;99.90
1391;DHT22;690;51.454;7.194;2023-06-22T11:15:41;26.00;99.90
1391;DHT22;690;51.454;7.194;2023-06-22T11:18:08;25.80;99.90
1391;DHT22;690;51.454;7.194;2023-06-22T11:20:37;25.60;99.90
1391;DHT22;690;51.454;7.194;2023-06-22T11:23:06;25.50;99.90
1391;DHT22;690;51.454;7.194;2023-06-22T11:25:33;25.40;99.90
1391;DHT22;690;51.454;7.194;2023-06-22T11:28:02;25.30;99.90
1391;DHT22;690;51.454;7.194;2023-06-22T11:30:30;25.20;99.90
1391;DHT22;690;51.454;7.194;2023-06-22T11:32:59;25.00;99.90
1391;DHT22;690;51.454;7.194;2023-06-22T11:35:26;24.80;99.90
1391;DHT22;690;51.454;7.194;2023-06-22T11:37:53;24.60;99.90
1391;DHT22;690;51.454;7.194;2023-06-22T11:40:21;24.40;99.90
1391;DHT22;690;51.454;7.194;2023-06-22T11:42:48;24.30;99.90
1391;DHT22;690;51.454;7.194;2023-06-22T11:45:15;24.20;99.90
1391;DHT22;690;51.454;7.194;2023-06-22T11:47:44;24.00;99.90
1391;DHT22;690;51.454;7.194;2023-06-22T11:50:11;23.90;99.90
1391;DHT22;690;51.454;7.194;2023-06-22T11:52:38;23.70;99.90
1391;DHT22;690;51.454;7.194;2023-06-22T11:55:06;23.70;99.90
1391;DHT22;690;51.454;7.194;2023-06-22T11:57:34;23.60;99.90
1391;DHT22;690;51.454;7.194;2023-06-22T12:00:01;23.50;99.90
1391;DHT22;690;51.454;7.194;2023-06-22T12:02:32;23.40;99.90
1391;DHT22;690;51.454;7.194;2023-06-22T12:05:01;23.20;99.90
1391;DHT22;690;51.454;7.194;2023-06-22T12:07:30;23.10;99.90
1391;DHT22;690;51.454;7.194;2023-06-22T12:09:57;22.90;99.90
1391;DHT22;690;51.454;7.194;2023-06-22T12:12:24;22.70;99.90
1391;DHT22;690;51.454;7.194;2023-06-22T12:14:50;22.60;99.90
1391;DHT22;690;51.454;7.194;2023-06-22T12:17:17;22.50;99.90
1391;DHT22;690;51.454;7.194;2023-06-22T12:19:44;22.40;99.90
1391;DHT22;690;51.454;7.194;2023-06-22T12:22:12;22.40;1.00
1391;DHT22;690;51.454;7.194;2023-06-22T12:24:39;22.30;1.00
1391;DHT22;690;51.454;7.194;2023-06-22T12:27:06;22.10;1.00
1391;DHT22;690;51.454;7.194;2023-06-22T12:29:33;22.10;1.00
1391;DHT22;690;51.454;7.194;2023-06-22T12:32:00;22.00;1.00
1391;DHT22;690;51.454;7.194;2023-06-22T12:34:27;22.10;1.00
1391;DHT22;690;51.454;7.194;2023-06-22T12:36:54;22.10;1.00
1391;DHT22;690;51.454;7.194;2023-06-22T12:39:22;22.10;1.00
1391;DHT22;690;51.454;7.194;2023-06-22T12:41:49;22.00;1.00
1391;DHT22;690;51.454;7.194;2023-06-22T12:44:16;22.00;1.00
1391;DHT22;690;51.454;7.194;2023-06-22T12:46:43;22.00;1.00
1391;DHT22;690;51.454;7.194;2023-06-22T12:49:15;21.90;1.00
1391;DHT22;690;51.454;7.194;2023-06-22T12:51:43;21.80;1.00
1391;DHT22;690;51.454;7.194;2023-06-22T12:54:11;21.70;31.50
1391;DHT22;690;51.454;7.194;2023-06-22T12:56:43;21.60;83.70
1391;DHT22;690;51.454;7.194;2023-06-22T12:59:10;21.60;99.90
1391;DHT22;690;51.454;7.194;2023-06-22T13:01:37;21.50;99.90
1391;DHT22;690;51.454;7.194;2023-06-22T13:04:04;21.50;99.90
1391;DHT22;690;51.454;7.194;2023-06-22T13:06:31;21.50;99.90
1391;DHT22;690;51.454;7.194;2023-06-22T13:08:58;21.50;99.90
1391;DHT22;690;51.454;7.194;2023-06-22T13:11:26;21.50;99.90
1391;DHT22;690;51.454;7.194;2023-06-22T13:13:59;21.50;99.90
1391;DHT22;690;51.454;7.194;2023-06-22T13:16:25;21.40;99.90
1391;DHT22;690;51.454;7.194;2023-06-22T13:18:52;21.40;99.90
1391;DHT22;690;51.454;7.194;2023-06-22T13:21:22;21.40;99.90
1391;DHT22;690;51.454;7.194;2023-06-22T13:23:49;21.50;99.90
1391;DHT22;690;51.454;7.194;2023-06-22T13:26:16;21.50;99.90
1391;DHT22;690;51.454;7.194;2023-06-22T13:28:43;21.50;99.90
1391;DHT22;690;51.454;7.194;2023-06-22T13:31:13;21.50;99.90
1391;DHT22;690;51.454;7.194;2023-06-22T13:33:40;21.70;99.90
1391;DHT22;690;51.454;7.194;2023-06-22T13:36:07;21.80;99.90
1391;DHT22;690;51.454;7.194;2023-06-22T13:38:35;21.90;99.90
1391;DHT22;690;51.454;7.194;2023-06-22T13:41:04;22.00;91.90
1391;DHT22;690;51.454;7.194;2023-06-22T13:43:31;22.10;1.00
1391;DHT22;690;51.454;7.194;2023-06-22T13:45:58;22.00;1.00
1391;DHT22;690;51.454;7.194;2023-06-22T13:48:26;21.90;1.00
1391;DHT22;690;51.454;7.194;2023-06-22T13:50:54;21.90;1.00
1391;DHT22;690;51.454;7.194;2023-06-22T13:53:21;21.80;1.00
1391;DHT22;690;51.454;7.194;2023-06-22T13:55:48;21.70;1.00
1391;DHT22;690;51.454;7.194;2023-06-22T13:58:14;21.70;1.00
1391;DHT22;690;51.454;7.194;2023-06-22T14:00:41;21.80;1.00
1391;DHT22;690;51.454;7.194;2023-06-22T14:03:08;21.80;1.00
1391;DHT22;690;51.454;7.194;2023-06-22T14:05:36;21.90;1.00
1391;DHT22;690;51.454;7.194;2023-06-22T14:08:03;22.00;1.00
1391;DHT22;690;51.454;7.194;2023-06-22T14:10:30;22.30;1.00
1391;DHT22;690;51.454;7.194;2023-06-22T14:12:57;22.60;1.00
1391;DHT22;690;51.454;7.194;2023-06-22T14:15:25;22.90;1.00
1391;DHT22;690;51.454;7.194;2023-06-22T14:17:52;23.20;1.00
1391;DHT22;690;51.454;7.194;2023-06-22T14:20:19;23.60;1.00
1391;DHT22;690;51.454;7.194;2023-06-22T14:22:47;23.80;1.00
1391;DHT22;690;51.454;7.194;2023-06-22T14:25:14;23.80;1.00
1391;DHT22;690;51.454;7.194;2023-06-22T14:27:41;23.60;99.90
1391;DHT22;690;51.454;7.194;2023-06-22T14:30:10;23.40;1.00
1391;DHT22;690;51.454;7.194;2023-06-22T14:32:37;23.20;1.00
1391;DHT22;690;51.454;7.194;2023-06-22T14:35:04;23.10;1.00
1391;DHT22;690;51.454;7.194;2023-06-22T14:37:31;22.90;1.00
1391;DHT22;690;51.454;7.194;2023-06-22T14:39:59;22.90;1.00
1391;DHT22;690;51.454;7.194;2023-06-22T14:42:26;22.80;1.00
1391;DHT22;690;51.454;7.194;2023-06-22T14:44:55;22.80;1.00
1391;DHT22;690;51.454;7.194;2023-06-22T14:47:22;22.60;1.00
1391;DHT22;690;51.454;7.194;2023-06-22T14:49:49;22.50;1.00
1391;DHT22;690;51.454;7.194;2023-06-22T14:52:16;22.40;1.00
1391;DHT22;690;51.454;7.194;2023-06-22T14:54:43;22.30;1.00
1391;DHT22;690;51.454;7.194;2023-06-22T14:57:11;22.20;1.00
1391;DHT22;690;51.454;7.194;2023-06-22T14:59:38;22.10;1.00
1391;DHT22;690;51.454;7.194;2023-06-22T15:02:05;22.10;1.00
1391;DHT22;690;51.454;7.194;2023-06-22T15:04:32;22.00;1.00
1391;DHT22;690;51.454;7.194;2023-06-22T15:07:00;21.90;1.00
1391;DHT22;690;51.454;7.194;2023-06-22T15:09:27;21.80;1.00
1391;DHT22;690;51.454;7.194;2023-06-22T15:11:54;21.70;1.00
1391;DHT22;690;51.454;7.194;2023-06-22T15:14:22;21.60;1.00
1391;DHT22;690;51.454;7.194;2023-06-22T15:16:50;21.40;1.00
1391;DHT22;690;51.454;7.194;2023-06-22T15:19:16;21.30;99.90
1391;DHT22;690;51.454;7.194;2023-06-22T15:21:44;21.30;99.90
1391;DHT22;690;51.454;7.194;2023-06-22T15:24:11;21.30;99.90
1391;DHT22;690;51.454;7.194;2023-06-22T15:26:38;21.50;78.30
1391;DHT22;690;51.454;7.194;2023-06-22T15:29:05;21.50;18.40
1391;DHT22;690;51.454;7.194;2023-06-22T15:31:33;21.40;1.00
1391;DHT22;690;51.454;7.194;2023-06-22T15:34:00;21.30;1.00
1391;DHT22;690;51.454;7.194;2023-06-22T15:36:29;21.10;5.00
1391;DHT22;690;51.454;7.194;2023-06-22T15:38:56;21.00;99.90
1391;DHT22;690;51.454;7.194;2023-06-22T15:41:23;20.90;99.90
1391;DHT22;690;51.454;7.194;2023-06-22T15:43:50;20.80;99.90
1391;DHT22;690;51.454;7.194;2023-06-22T15:46:17;20.70;99.90
1391;DHT22;690;51.454;7.194;2023-06-22T15:48:45;20.70;99.90
1391;DHT22;690;51.454;7.194;2023-06-22T15:51:12;20.60;99.90
1391;DHT22;690;51.454;7.194;2023-06-22T15:53:40;20.50;99.90
1391;DHT22;690;51.454;7.194;2023-06-22T15:56:07;20.40;99.90
1391;DHT22;690;51.454;7.194;2023-06-22T15:58:35;20.30;99.90
1391;DHT22;690;51.454;7.194;2023-06-22T16:01:02;20.10;99.90
1391;DHT22;690;51.454;7.194;2023-06-22T16:03:30;20.00;99.90
1391;DHT22;690;51.454;7.194;2023-06-22T16:05:58;19.90;1.00
1391;DHT22;690;51.454;7.194;2023-06-22T16:08:25;19.60;1.00
1391;DHT22;690;51.454;7.194;2023-06-22T16:10:56;19.40;99.90
1391;DHT22;690;51.454;7.194;2023-06-22T16:13:23;19.30;1.00
1391;DHT22;690;51.454;7.194;2023-06-22T16:15:49;19.20;1.00
1391;DHT22;690;51.454;7.194;2023-06-22T16:18:17;19.20;1.00
1391;DHT22;690;51.454;7.194;2023-06-22T16:20:44;19.20;1.00
1391;DHT22;690;51.454;7.194;2023-06-22T16:23:13;19.10;1.00
1391;DHT22;690;51.454;7.194;2023-06-22T16:25:40;19.00;1.00